Time;durP1;ratioP1;P1;durP2;ratioP2;P2;SDS_P1;SDS_P2;PMS_P1;PMS_P2;Temp;Humidity;BMP_temperature;BMP_pressure;BME280_temperature;BME280_humidity;BME280_pressure;Samples;Min_cycle;Max_cycle;Signal;HPM_P1;HPM_P2
2021/05/05 00:00:38;;;;;;;6.28;0.47;;;6.50;99.90;;;;;;5095679;28;20040;-71
2021/05/05 00:03:05;;;;;;;5.85;0.63;;;6.50;99.90;;;;;;5077387;28;20103;-76
2021/05/05 00:05:30;;;;;;;8.18;1.10;;;6.50;99.90;;;;;;5095549;28;20419;-76
2021/05/05 00:07:56;;;;;;;3.65;0.15;;;6.50;99.90;;;;;;5094863;28;20035;-76
2021/05/05 00:10:21;;;;;;;5.80;0.55;;;6.40;99.90;;;;;;5094834;28;20035;-77
2021/05/05 00:12:48;;;;;;;8.90;1.17;;;6.40;99.90;;;;;;5095477;28;20024;-77
2021/05/05 00:15:20;;;;;;;5.60;0.52;;;6.40;99.90;;;;;;5077019;28;20056;-77
2021/05/05 00:17:45;;;;;;;6.55;0.10;;;6.40;99.90;;;;;;5095512;28;20032;-77
2021/05/05 00:20:12;;;;;;;9.80;1.23;;;6.40;99.90;;;;;;5076993;28;20030;-76
2021/05/05 00:22:38;;;;;;;4.10;0.25;;;6.40;99.90;;;;;;5076645;28;20016;-77
2021/05/05 00:25:05;;;;;;;11.32;0.77;;;6.50;99.90;;;;;;5076701;28;20024;-77
2021/05/05 00:27:31;;;;;;;8.05;0.55;;;6.50;99.90;;;;;;5094798;28;20047;-77
2021/05/05 00:29:58;;;;;;;5.35;0.25;;;6.60;99.90;;;;;;5094853;28;20024;-77
2021/05/05 00:32:23;;;;;;;7.00;0.90;;;6.60;99.90;;;;;;5125791;23;20573;-72
2021/05/05 00:34:49;;;;;;;2.83;0.47;;;6.40;99.90;;;;;;5075430;28;20069;-73
2021/05/05 00:37:15;;;;;;;6.47;0.70;;;6.30;99.90;;;;;;5074945;28;20378;-72
2021/05/05 00:39:40;;;;;;;5.07;0.20;;;6.20;99.90;;;;;;5074927;28;20031;-72
2021/05/05 00:42:06;;;;;;;4.30;0.17;;;6.10;99.90;;;;;;5056844;28;20013;-72
2021/05/05 00:44:32;;;;;;;8.35;0.30;;;6.10;99.90;;;;;;5074535;28;20027;-72
2021/05/05 00:46:58;;;;;;;4.88;0.00;;;6.00;99.90;;;;;;5088771;22;20070;-72
2021/05/05 00:49:24;;;;;;;7.50;0.65;;;6.00;99.90;;;;;;5094641;28;20028;-72
2021/05/05 00:51:49;;;;;;;6.13;1.00;;;5.90;99.90;;;;;;5094615;28;20038;-72
2021/05/05 00:54:15;;;;;;;13.35;0.47;;;5.90;99.90;;;;;;5094582;28;20047;-72
2021/05/05 00:56:41;;;;;;;5.82;0.28;;;5.90;99.90;;;;;;5092280;22;20044;-74
2021/05/05 00:59:06;;;;;;;12.77;0.98;;;5.90;99.90;;;;;;5094192;28;20460;-73
2021/05/05 01:01:32;;;;;;;4.28;0.30;;;5.80;99.90;;;;;;5094422;28;20376;-73
2021/05/05 01:03:57;;;;;;;3.40;0.00;;;5.80;99.90;;;;;;5094269;28;20028;-73
2021/05/05 01:06:23;;;;;;;3.33;0.08;;;5.80;99.90;;;;;;5094741;28;20142;-73
2021/05/05 01:08:48;;;;;;;3.22;0.20;;;5.80;99.90;;;;;;5093617;28;20081;-74
2021/05/05 01:11:15;;;;;;;8.80;0.60;;;5.70;99.90;;;;;;5093844;28;20024;-73
2021/05/05 01:13:42;;;;;;;7.78;0.22;;;5.80;99.90;;;;;;5075091;28;20020;-73
2021/05/05 01:16:09;;;;;;;7.65;0.85;;;5.80;99.90;;;;;;5075724;28;20047;-73
2021/05/05 01:18:35;;;;;;;3.67;0.10;;;5.70;99.90;;;;;;5094332;28;20020;-73
2021/05/05 01:21:01;;;;;;;6.38;0.35;;;5.80;99.90;;;;;;5075831;28;20032;-73
2021/05/05 01:23:27;;;;;;;7.72;0.75;;;5.80;99.90;;;;;;5093783;28;20024;-73
2021/05/05 01:25:53;;;;;;;10.63;0.68;;;5.80;99.90;;;;;;5075560;28;20030;-73
2021/05/05 01:28:19;;;;;;;8.50;1.35;;;5.80;99.90;;;;;;5075441;28;20020;-73
2021/05/05 01:30:45;;;;;;;7.13;0.10;;;5.90;99.90;;;;;;5094261;28;20028;-71
2021/05/05 01:33:12;;;;;;;9.27;0.28;;;5.90;99.90;;;;;;5075923;28;20024;-76
2021/05/05 01:35:38;;;;;;;10.65;0.70;;;5.90;99.90;;;;;;5106998;22;20510;-73
2021/05/05 01:38:04;;;;;;;16.45;0.75;;;5.90;99.90;;;;;;5093950;28;20111;-72
2021/05/05 01:40:32;;;;;;;7.15;0.30;;;5.90;99.90;;;;;;5042197;28;20419;-73
2021/05/05 01:42:59;;;;;;;6.78;0.35;;;5.90;99.90;;;;;;5052271;28;20024;-73
2021/05/05 01:45:25;;;;;;;7.18;0.82;;;5.80;99.90;;;;;;5072492;28;20013;-73
2021/05/05 01:47:55;;;;;;;6.53;0.95;;;5.80;99.90;;;;;;5073537;28;20051;-73
2021/05/05 01:50:21;;;;;;;6.82;0.70;;;5.80;99.90;;;;;;5073671;28;20050;-73
2021/05/05 01:52:46;;;;;;;5.13;0.25;;;5.80;99.90;;;;;;5073807;28;20024;-73
2021/05/05 01:55:12;;;;;;;15.05;1.35;;;5.80;99.90;;;;;;5073494;28;20070;-73
2021/05/05 01:57:46;;;;;;;12.70;1.65;;;5.90;99.90;;;;;;5055452;28;20094;-73
2021/05/05 02:00:22;;;;;;;10.27;0.10;;;5.80;99.90;;;;;;5055382;28;20048;-73
2021/05/05 02:02:47;;;;;;;4.72;0.28;;;5.80;99.90;;;;;;5055711;28;20033;-73
2021/05/05 02:05:13;;;;;;;9.07;0.65;;;5.90;99.90;;;;;;5073099;28;20027;-72
2021/05/05 02:07:40;;;;;;;4.07;0.43;;;5.90;99.90;;;;;;5055612;28;20029;-72
2021/05/05 02:10:09;;;;;;;12.68;0.82;;;5.90;99.90;;;;;;5073939;28;20028;-72
2021/05/05 02:12:34;;;;;;;5.55;0.25;;;5.90;99.90;;;;;;5073698;28;20024;-73
2021/05/05 02:15:00;;;;;;;6.90;0.55;;;5.90;99.90;;;;;;5074194;28;20389;-72
2021/05/05 02:17:26;;;;;;;6.80;0.17;;;5.90;99.90;;;;;;5055414;28;20035;-78
2021/05/05 02:19:52;;;;;;;6.25;0.10;;;5.90;99.90;;;;;;5075802;28;20369;-72
2021/05/05 02:22:17;;;;;;;6.60;0.63;;;5.90;99.90;;;;;;5108494;22;20115;-72
2021/05/05 02:24:43;;;;;;;3.72;0.70;;;5.90;99.90;;;;;;5098006;28;20023;-73
2021/05/05 02:27:09;;;;;;;7.75;0.20;;;5.90;99.90;;;;;;5132626;22;20142;-72
2021/05/05 02:29:35;;;;;;;13.30;0.82;;;6.00;99.90;;;;;;5077207;28;20016;-71
2021/05/05 02:32:03;;;;;;;5.45;0.55;;;6.00;99.90;;;;;;5077106;28;20104;-74
2021/05/05 02:34:29;;;;;;;7.93;1.65;;;6.10;99.90;;;;;;5077814;28;20044;-72
2021/05/05 02:36:54;;;;;;;6.00;0.68;;;6.00;99.90;;;;;;5077276;28;20029;-72
2021/05/05 02:39:20;;;;;;;10.10;1.08;;;6.00;99.90;;;;;;5077398;28;20078;-72
2021/05/05 02:41:47;;;;;;;6.75;0.38;;;6.00;99.90;;;;;;5077104;28;20421;-72
2021/05/05 02:44:13;;;;;;;10.07;0.95;;;6.00;99.90;;;;;;5059178;28;20362;-73
2021/05/05 02:46:38;;;;;;;15.23;0.85;;;5.90;99.90;;;;;;5059408;28;20070;-72
2021/05/05 02:49:06;;;;;;;11.18;1.30;;;6.00;99.90;;;;;;5059499;28;20484;-73
2021/05/05 02:51:31;;;;;;;7.20;0.73;;;5.90;99.90;;;;;;5076889;28;20036;-73
2021/05/05 02:53:57;;;;;;;6.70;1.00;;;6.00;99.90;;;;;;5058254;28;20027;-72
2021/05/05 02:56:22;;;;;;;7.32;0.73;;;6.00;99.90;;;;;;5058583;28;20067;-72
2021/05/05 02:58:48;;;;;;;6.95;0.88;;;5.90;99.90;;;;;;5059079;28;20088;-72
2021/05/05 03:01:14;;;;;;;9.25;0.40;;;5.90;99.90;;;;;;5076568;28;20104;-75
2021/05/05 03:03:39;;;;;;;8.88;0.50;;;5.80;99.90;;;;;;5059033;28;20595;-72
2021/05/05 03:06:05;;;;;;;6.40;0.55;;;5.70;99.90;;;;;;5076548;28;20128;-73
2021/05/05 03:08:31;;;;;;;9.38;1.40;;;5.70;99.90;;;;;;5077051;28;20094;-75
2021/05/05 03:10:57;;;;;;;10.18;0.65;;;5.70;99.90;;;;;;5058537;28;20028;-72
2021/05/05 03:13:23;;;;;;;7.32;1.23;;;5.70;99.90;;;;;;5076403;28;20024;-72
2021/05/05 03:15:48;;;;;;;6.28;0.13;;;5.60;99.90;;;;;;5076661;28;20122;-73
2021/05/05 03:18:14;;;;;;;6.53;0.40;;;5.60;99.90;;;;;;5076261;28;20028;-72
2021/05/05 03:20:39;;;;;;;4.97;0.30;;;5.60;99.90;;;;;;5076277;28;20024;-73
2021/05/05 03:23:05;;;;;;;6.15;0.20;;;5.50;99.90;;;;;;5076910;28;20024;-73
2021/05/05 03:25:30;;;;;;;7.22;0.88;;;5.50;99.90;;;;;;5058273;28;20025;-72
2021/05/05 03:27:56;;;;;;;4.40;0.20;;;5.40;99.90;;;;;;5076095;28;20112;-74
2021/05/05 03:30:22;;;;;;;2.22;0.30;;;5.40;99.90;;;;;;5060559;28;20025;-73
2021/05/05 03:32:48;;;;;;;2.25;0.10;;;5.40;99.90;;;;;;5076037;28;20027;-72
2021/05/05 03:35:13;;;;;;;4.85;0.10;;;5.40;99.90;;;;;;5076608;28;20111;-71
2021/05/05 03:37:39;;;;;;;7.95;0.40;;;5.40;99.90;;;;;;5057643;28;20035;-71
2021/05/05 03:40:07;;;;;;;2.08;0.00;;;5.40;99.90;;;;;;5058859;28;20020;-73
2021/05/05 03:42:33;;;;;;;2.77;0.33;;;5.40;99.90;;;;;;5057905;28;20021;-72
2021/05/05 03:45:02;;;;;;;5.75;0.68;;;5.40;99.90;;;;;;5075409;28;20051;-73
2021/05/05 03:47:28;;;;;;;5.05;0.45;;;5.30;99.90;;;;;;5058614;28;20495;-75
2021/05/05 03:49:53;;;;;;;6.75;0.75;;;5.30;99.90;;;;;;5062568;23;20127;-72
2021/05/05 03:52:19;;;;;;;6.10;0.35;;;5.20;99.90;;;;;;5055852;28;20104;-72
2021/05/05 03:54:44;;;;;;;9.75;0.22;;;5.20;99.90;;;;;;5055483;28;20071;-76
2021/05/05 03:57:10;;;;;;;5.82;0.40;;;5.20;99.90;;;;;;5055561;28;20021;-72
2021/05/05 03:59:36;;;;;;;8.15;0.38;;;5.30;99.90;;;;;;5055544;28;20104;-73
2021/05/05 04:02:01;;;;;;;6.15;0.00;;;5.30;99.90;;;;;;5055819;28;20021;-72
2021/05/05 04:04:27;;;;;;;3.08;0.05;;;5.30;99.90;;;;;;5055866;28;20056;-72
2021/05/05 04:06:53;;;;;;;8.02;0.75;;;5.30;99.90;;;;;;5055590;28;20028;-72
2021/05/05 04:09:18;;;;;;;6.68;0.10;;;5.30;99.90;;;;;;5074574;22;20040;-73
2021/05/05 04:11:44;;;;;;;4.10;0.40;;;5.30;99.90;;;;;;5075439;28;20042;-76
2021/05/05 04:14:09;;;;;;;9.23;0.10;;;5.30;99.90;;;;;;5073856;28;20017;-77
2021/05/05 04:16:35;;;;;;;12.63;0.30;;;5.30;99.90;;;;;;5073945;28;20083;-72
2021/05/05 04:19:01;;;;;;;9.88;0.45;;;5.40;99.90;;;;;;5057286;28;20089;-72
2021/05/05 04:21:27;;;;;;;3.50;0.30;;;5.50;99.90;;;;;;5075030;28;20563;-73
2021/05/05 04:23:53;;;;;;;9.98;0.52;;;5.50;99.90;;;;;;5074895;28;20048;-77
2021/05/05 04:26:19;;;;;;;11.13;0.60;;;5.60;99.90;;;;;;5056956;28;20017;-72
2021/05/05 04:28:46;;;;;;;10.07;0.88;;;5.70;99.90;;;;;;5074810;28;20496;-71
2021/05/05 04:31:12;;;;;;;6.60;1.00;;;5.80;99.90;;;;;;5074777;28;20024;-72
2021/05/05 04:33:39;;;;;;;7.10;0.28;;;5.80;99.90;;;;;;5056765;28;20039;-75
2021/05/05 04:36:05;;;;;;;1.50;0.00;;;5.80;99.90;;;;;;5056907;28;20432;-73
2021/05/05 04:38:30;;;;;;;13.52;2.10;;;5.80;99.90;;;;;;5074323;28;20055;-73
2021/05/05 04:40:56;;;;;;;5.47;0.25;;;5.80;99.90;;;;;;5074670;28;20029;-72
2021/05/05 04:43:21;;;;;;;10.57;0.30;;;5.80;99.90;;;;;;5073911;28;20427;-71
2021/05/05 04:45:47;;;;;;;3.35;0.10;;;5.70;99.90;;;;;;5075082;28;20024;-72
2021/05/05 04:48:13;;;;;;;6.90;0.28;;;5.70;99.90;;;;;;5056750;28;20028;-73
2021/05/05 04:50:38;;;;;;;11.13;1.30;;;5.70;99.90;;;;;;5075042;28;20028;-73
2021/05/05 04:53:04;;;;;;;6.93;0.47;;;5.70;99.90;;;;;;5075044;28;20473;-74
2021/05/05 04:55:29;;;;;;;13.82;0.90;;;5.70;99.90;;;;;;5056546;28;20092;-73
2021/05/05 05:00:26;;;;;;;4.72;0.10;;;5.70;99.90;;;;;;5073259;28;20059;-73
2021/05/05 05:02:52;;;;;;;;;;;5.60;99.90;;;;;;5056731;28;20487;-73
2021/05/05 05:05:17;;;;;;;9.10;0.28;;;5.80;99.90;;;;;;5074673;28;19999;-72
2021/05/05 05:07:43;;;;;;;17.02;1.70;;;5.90;99.90;;;;;;5086643;22;20045;-74
2021/05/05 05:10:09;;;;;;;9.93;0.10;;;5.80;99.90;;;;;;5073164;28;20450;-72
2021/05/05 05:12:34;;;;;;;4.72;0.32;;;5.90;99.90;;;;;;5074493;28;20079;-73
2021/05/05 05:15:01;;;;;;;4.88;0.40;;;6.00;99.90;;;;;;5089445;28;20485;-73
2021/05/05 05:17:26;;;;;;;3.60;0.13;;;6.10;99.90;;;;;;5074199;28;20078;-72
2021/05/05 05:19:52;;;;;;;8.32;1.42;;;6.10;99.90;;;;;;5055962;28;20462;-77
2021/05/05 05:22:18;;;;;;;9.57;0.73;;;6.10;99.90;;;;;;5073874;28;20062;-71
2021/05/05 05:24:43;;;;;;;5.10;0.57;;;6.10;99.90;;;;;;5056331;28;20125;-76
2021/05/05 05:27:09;;;;;;;5.80;0.38;;;6.10;99.90;;;;;;5055929;28;20031;-73
2021/05/05 05:29:34;;;;;;;10.82;0.40;;;6.10;99.90;;;;;;5074181;28;20028;-72
2021/05/05 05:32:00;;;;;;;4.57;0.52;;;6.00;99.90;;;;;;5073865;28;20485;-76
2021/05/05 05:34:25;;;;;;;5.95;0.25;;;6.10;99.90;;;;;;5073672;28;20037;-73
2021/05/05 05:36:51;;;;;;;5.70;0.55;;;6.00;99.90;;;;;;5073766;28;20036;-73
2021/05/05 05:39:16;;;;;;;2.97;0.20;;;6.10;99.90;;;;;;5073636;28;20393;-73
2021/05/05 05:41:42;;;;;;;10.07;0.80;;;6.00;99.90;;;;;;5055867;28;20058;-74
2021/05/05 05:44:08;;;;;;;5.07;0.32;;;6.10;99.90;;;;;;5073530;28;20104;-72
2021/05/05 05:46:38;;;;;;;13.18;0.65;;;6.20;99.90;;;;;;5074076;28;20100;-74
2021/05/05 05:49:07;;;;;;;8.57;0.77;;;6.30;99.90;;;;;;5073628;28;20541;-72
2021/05/05 05:51:33;;;;;;;;;;;6.60;99.90;;;;;;5074045;28;20029;-72
2021/05/05 05:53:58;;;;;;;8.93;0.43;;;6.60;99.90;;;;;;5074548;28;20293;-72
2021/05/05 05:56:24;;;;;;;7.28;0.65;;;6.70;99.90;;;;;;5098029;28;20028;-72
2021/05/05 05:58:50;;;;;;;9.13;0.60;;;6.80;99.90;;;;;;5097464;28;20023;-72
2021/05/05 06:01:18;;;;;;;7.50;0.50;;;6.80;99.90;;;;;;5096880;28;20365;-72
2021/05/05 06:03:43;;;;;;;12.70;1.40;;;7.00;99.90;;;;;;5096983;28;20091;-73
2021/05/05 06:06:09;;;;;;;9.43;0.43;;;7.00;99.90;;;;;;5093635;28;20039;-73
2021/05/05 06:08:37;;;;;;;2.53;0.40;;;7.00;99.90;;;;;;5077677;28;20369;-74
2021/05/05 06:11:03;;;;;;;4.57;0.10;;;7.00;99.90;;;;;;5077774;28;20021;-74
2021/05/05 06:13:28;;;;;;;6.88;0.70;;;6.90;99.90;;;;;;5076633;28;20032;-74
2021/05/05 06:15:54;;;;;;;7.30;1.30;;;6.90;99.90;;;;;;5078264;28;20024;-74
2021/05/05 06:18:20;;;;;;;9.35;0.40;;;7.00;99.90;;;;;;5077599;28;20381;-73
2021/05/05 06:20:45;;;;;;;10.93;0.45;;;7.00;99.90;;;;;;5075329;28;20106;-73
2021/05/05 06:23:11;;;;;;;4.50;0.28;;;7.00;99.90;;;;;;5053379;28;20047;-73
2021/05/05 06:25:37;;;;;;;6.50;0.57;;;7.10;99.90;;;;;;5077492;28;20051;-73
2021/05/05 06:28:03;;;;;;;5.88;0.22;;;7.10;99.90;;;;;;5076763;28;20025;-76
2021/05/05 06:30:28;;;;;;;6.57;0.43;;;7.20;99.90;;;;;;5059457;28;20074;-73
2021/05/05 06:32:54;;;;;;;2.97;0.00;;;7.30;99.90;;;;;;5059126;28;20497;-73
2021/05/05 06:35:19;;;;;;;5.45;0.20;;;7.30;99.90;;;;;;5059007;28;20020;-72
2021/05/05 06:37:45;;;;;;;4.63;0.22;;;7.40;99.90;;;;;;5076990;28;20032;-73
2021/05/05 06:40:11;;;;;;;4.43;0.10;;;7.50;99.90;;;;;;5077320;28;20437;-74
2021/05/05 06:42:37;;;;;;;11.15;1.05;;;7.50;99.90;;;;;;5100227;22;20047;-74
2021/05/05 06:45:04;;;;;;;4.45;0.10;;;7.70;99.90;;;;;;5078944;28;20016;-75
2021/05/05 06:47:30;;;;;;;4.63;0.47;;;7.80;99.90;;;;;;5097981;28;20024;-75
2021/05/05 06:49:56;;;;;;;6.47;0.30;;;7.90;99.90;;;;;;5078702;28;20103;-73
2021/05/05 06:52:21;;;;;;;3.97;0.03;;;7.80;99.90;;;;;;5078684;28;20047;-73
2021/05/05 06:54:47;;;;;;;7.22;0.82;;;7.90;99.90;;;;;;5096749;28;20032;-74
2021/05/05 06:57:13;;;;;;;4.43;0.10;;;7.90;99.90;;;;;;5097224;28;20388;-74
2021/05/05 06:59:39;;;;;;;4.43;0.10;;;8.00;99.90;;;;;;5086590;28;20035;-75
2021/05/05 07:02:12;;;;;;;7.60;0.73;;;8.10;99.90;;;;;;5077329;28;20013;-74
2021/05/05 07:04:40;;;;;;;5.18;0.43;;;8.20;99.90;;;;;;5080124;28;20028;-74
2021/05/05 07:07:08;;;;;;;5.82;0.20;;;8.20;99.90;;;;;;5096118;28;20040;-74
2021/05/05 07:09:34;;;;;;;5.72;0.63;;;8.30;99.90;;;;;;5098496;28;20024;-75
2021/05/05 07:12:00;;;;;;;3.05;0.20;;;8.40;99.90;;;;;;5097831;28;20047;-74
2021/05/05 07:14:25;;;;;;;2.67;0.10;;;8.40;99.90;;;;;;5096843;28;20089;-77
2021/05/05 07:16:51;;;;;;;4.13;0.10;;;8.40;99.90;;;;;;5097023;28;20122;-74
2021/05/05 07:19:17;;;;;;;13.20;0.20;;;8.40;99.90;;;;;;5096716;28;20024;-74
2021/05/05 07:21:42;;;;;;;6.32;0.80;;;8.20;99.90;;;;;;5096895;28;20035;-77
2021/05/05 07:24:08;;;;;;;3.47;0.10;;;8.00;99.90;;;;;;5078406;28;20032;-75
2021/05/05 07:26:34;;;;;;;2.75;0.30;;;7.80;99.90;;;;;;5078424;28;20119;-75
2021/05/05 07:28:59;;;;;;;2.60;0.20;;;7.70;99.90;;;;;;5078230;28;20028;-75
2021/05/05 07:31:28;;;;;;;3.90;0.55;;;7.60;99.90;;;;;;5096622;28;20388;-75
2021/05/05 07:33:55;;;;;;;1.90;0.20;;;7.70;99.90;;;;;;5097199;28;20024;-75
2021/05/05 07:36:25;;;;;;;6.35;0.20;;;7.80;99.90;;;;;;5096377;28;20016;-75
2021/05/05 07:46:50;;;;;;;4.78;0.20;;;8.30;99.90;;;;;;5090929;28;20043;-76
2021/05/05 07:49:17;;;;;;;3.28;0.20;;;8.30;99.90;;;;;;5095846;28;20023;-74
2021/05/05 07:51:44;;;;;;;3.67;0.10;;;8.40;99.90;;;;;;5096319;28;20103;-75
2021/05/05 07:54:14;;;;;;;4.97;0.00;;;8.30;99.90;;;;;;5078247;28;20107;-75
2021/05/05 07:56:41;;;;;;;5.20;0.50;;;8.10;99.90;;;;;;5096071;23;20068;-75
2021/05/05 07:59:07;;;;;;;7.55;0.73;;;8.20;99.90;;;;;;5100188;22;20381;-75
2021/05/05 08:01:34;;;;;;;2.90;0.30;;;8.10;99.90;;;;;;5115970;28;20056;-76
2021/05/05 08:04:00;;;;;;;7.55;0.00;;;8.20;99.90;;;;;;5095806;22;20052;-74
2021/05/05 08:06:27;;;;;;;4.28;0.05;;;8.40;99.90;;;;;;5075529;28;20024;-75
2021/05/05 08:08:54;;;;;;;8.65;0.25;;;8.70;99.90;;;;;;5101154;28;20446;-76
2021/05/05 08:11:20;;;;;;;7.32;0.00;;;8.80;99.90;;;;;;5057360;28;20052;-74
2021/05/05 08:13:47;;;;;;;6.15;0.52;;;8.80;99.90;;;;;;5057416;28;20111;-77
2021/05/05 08:16:16;;;;;;;4.70;0.10;;;8.80;99.90;;;;;;5037730;28;20063;-75
2021/05/05 08:18:41;;;;;;;6.25;0.55;;;9.10;99.90;;;;;;5037752;28;20072;-76
2021/05/05 08:21:08;;;;;;;12.88;0.45;;;9.40;99.90;;;;;;5055489;28;20021;-77
2021/05/05 08:23:34;;;;;;;4.75;0.20;;;9.30;99.90;;;;;;5065864;28;20035;-76
2021/05/05 08:26:00;;;;;;;5.15;0.20;;;8.90;99.90;;;;;;5075111;28;20362;-74
2021/05/05 08:28:26;;;;;;;5.72;0.00;;;8.50;99.90;;;;;;5090634;28;20028;-74
2021/05/05 08:30:52;;;;;;;9.15;0.68;;;8.30;99.90;;;;;;5074656;28;20036;-74
2021/05/05 08:33:19;;;;;;;4.05;0.30;;;8.10;99.90;;;;;;5056500;28;20480;-75
2021/05/05 08:35:44;;;;;;;10.95;0.20;;;8.00;99.90;;;;;;5075019;28;20052;-76
2021/05/05 08:38:10;;;;;;;1.30;0.00;;;8.10;99.90;;;;;;5057080;28;20056;-74
2021/05/05 08:40:35;;;;;;;8.30;0.28;;;8.40;99.90;;;;;;5090317;28;20016;-73
2021/05/05 08:43:01;;;;;;;7.68;0.10;;;8.80;99.90;;;;;;5091066;28;20085;-76
2021/05/05 08:45:28;;;;;;;8.45;0.38;;;8.90;99.90;;;;;;5059216;28;20021;-76
2021/05/05 08:47:57;;;;;;;10.23;0.45;;;8.80;99.90;;;;;;5080423;22;20075;-75
2021/05/05 08:50:26;;;;;;;1.88;0.00;;;8.80;99.90;;;;;;5036619;28;20021;-75
2021/05/05 08:52:51;;;;;;;;;;;8.60;99.90;;;;;;5037498;28;20044;-75
2021/05/05 08:55:19;;;;;;;2.90;0.38;;;8.60;99.90;;;;;;5036724;28;19955;-74
2021/05/05 08:57:46;;;;;;;1.48;0.32;;;8.90;99.90;;;;;;5053014;28;20037;-74
2021/05/05 09:00:16;;;;;;;1.75;0.68;;;9.10;99.90;;;;;;5022042;28;20025;-76
2021/05/05 09:02:41;;;;;;;5.38;0.30;;;9.20;99.90;;;;;;5054305;28;20033;-75
2021/05/05 09:05:10;;;;;;;8.32;0.20;;;9.30;99.90;;;;;;5036550;28;20450;-75
2021/05/05 09:07:36;;;;;;;;;;;9.50;99.90;;;;;;5037207;28;20021;-74
2021/05/05 09:10:08;;;;;;;4.03;0.00;;;9.70;99.90;;;;;;5075107;23;19920;-74
2021/05/05 09:12:36;;;;;;;2.17;0.30;;;9.70;99.90;;;;;;5095080;28;20024;-76
2021/05/05 09:15:05;;;;;;;3.05;0.52;;;9.40;99.90;;;;;;5076379;28;20028;-76
2021/05/05 09:17:36;;;;;;;7.43;0.40;;;9.10;99.90;;;;;;5094658;28;20503;-75
2021/05/05 09:20:04;;;;;;;3.55;0.38;;;8.60;99.90;;;;;;5076095;28;20024;-74
2021/05/05 09:22:58;;;;;;;3.20;0.00;;;8.60;99.90;;;;;;5094817;28;20024;-75
2021/05/05 09:25:29;;;;;;;1.50;0.00;;;8.60;99.90;;;;;;5075538;28;20086;-76
2021/05/05 09:28:10;;;;;;;3.08;0.30;;;9.00;99.90;;;;;;5076094;28;20042;-75
2021/05/05 09:30:38;;;;;;;3.83;0.00;;;9.40;99.90;;;;;;5093820;28;20069;-76
2021/05/05 09:33:04;;;;;;;8.63;0.10;;;9.70;99.90;;;;;;5076106;28;20110;-77
2021/05/05 09:35:32;;;;;;;3.42;0.20;;;9.80;99.90;;;;;;5094182;28;20020;-74
2021/05/05 09:38:00;;;;;;;2.85;0.00;;;9.70;99.90;;;;;;5094310;28;20024;-76
2021/05/05 09:40:29;;;;;;;9.40;0.15;;;9.40;99.90;;;;;;5094284;28;20016;-74
2021/05/05 09:42:55;;;;;;;0.52;0.00;;;9.00;99.90;;;;;;5094876;28;20358;-74
2021/05/05 09:45:22;;;;;;;8.93;0.20;;;8.60;99.90;;;;;;5093982;28;20103;-77
2021/05/05 09:47:56;;;;;;;4.03;0.03;;;8.30;99.90;;;;;;5094191;28;20450;-75
2021/05/05 09:50:30;;;;;;;6.40;0.10;;;8.10;99.90;;;;;;5076081;28;20035;-75
2021/05/05 09:53:20;;;;;;;9.85;0.10;;;8.10;99.90;;;;;;5075539;28;20056;-77
2021/05/05 09:55:53;;;;;;;5.63;0.17;;;8.20;99.90;;;;;;5094118;28;20027;-74
2021/05/05 09:58:23;;;;;;;2.05;0.20;;;8.60;99.90;;;;;;5076243;28;20503;-74
2021/05/05 10:01:20;;;;;;;7.78;0.60;;;9.10;99.90;;;;;;5075852;28;20477;-76
2021/05/05 10:03:54;;;;;;;4.30;0.20;;;9.60;99.90;;;;;;5070351;28;20043;-75
2021/05/05 10:06:38;;;;;;;7.75;0.32;;;10.00;99.90;;;;;;5093935;28;20496;-75
2021/05/05 10:09:06;;;;;;;4.38;0.68;;;10.10;99.90;;;;;;5098174;28;20092;-76
2021/05/05 10:11:34;;;;;;;8.77;0.50;;;10.10;99.90;;;;;;5112086;28;20016;-75
2021/05/05 10:14:07;;;;;;;10.25;0.30;;;10.00;99.90;;;;;;5106666;28;20015;-76
2021/05/05 10:16:36;;;;;;;8.85;0.95;;;10.00;99.90;;;;;;5113090;28;20027;-75
2021/05/05 10:19:06;;;;;;;;;;;9.90;99.90;;;;;;5093710;28;20027;-76
2021/05/05 10:21:34;;;;;;;18.10;2.38;;;9.80;99.90;;;;;;5093792;28;19904;-76
2021/05/05 10:24:00;;;;;;;12.82;0.63;;;9.60;99.90;;;;;;5093651;28;20016;-76
2021/05/05 10:26:28;;;;;;;9.23;0.50;;;9.20;99.90;;;;;;5092496;28;20016;-76
2021/05/05 10:28:54;;;;;;;20.45;1.45;;;9.20;99.90;;;;;;5075458;28;20032;-75
2021/05/05 10:31:24;;;;;;;7.03;0.52;;;9.50;99.90;;;;;;5092473;28;20024;-76
2021/05/05 10:33:52;;;;;;;11.57;0.38;;;10.00;99.90;;;;;;5092553;28;20020;-76
2021/05/05 10:36:40;;;;;;;10.20;0.85;;;10.40;99.90;;;;;;5093975;28;20012;-76
2021/05/05 10:39:17;;;;;;;4.53;0.30;;;10.30;99.90;;;;;;5094560;28;20028;-77
2021/05/05 10:42:29;;;;;;;6.45;0.20;;;10.30;99.90;;;;;;5097280;28;20012;-78
2021/05/05 10:45:00;;;;;;;9.90;0.95;;;10.30;99.90;;;;;;5091832;28;20443;-76
2021/05/05 10:47:31;;;;;;;11.93;0.75;;;10.40;99.90;;;;;;5098369;28;20396;-77
2021/05/05 10:50:01;;;;;;;7.78;0.52;;;10.70;99.90;;;;;;5107466;28;20023;-76
2021/05/05 10:52:28;;;;;;;6.40;0.50;;;11.10;99.90;;;;;;5118654;28;20432;-76
2021/05/05 10:54:55;;;;;;;9.98;0.20;;;11.30;95.90;;;;;;5118274;28;20434;-77
2021/05/05 10:57:22;;;;;;;3.72;0.20;;;11.30;93.10;;;;;;5118237;28;20083;-77
2021/05/05 10:59:57;;;;;;;7.65;1.05;;;11.40;92.20;;;;;;5115928;28;20047;-77
2021/05/05 11:02:38;;;;;;;7.07;0.73;;;11.40;88.40;;;;;;5097385;28;20483;-77
2021/05/05 11:05:37;;;;;;;5.35;0.55;;;11.50;86.80;;;;;;5114559;22;20040;-75
2021/05/05 11:08:27;;;;;;;4.25;0.10;;;11.70;92.40;;;;;;5087021;28;20036;-74
2021/05/05 11:10:59;;;;;;;8.05;0.00;;;10.30;87.50;;;;;;5051075;28;20566;-75
2021/05/05 11:13:31;;;;;;;7.32;0.15;;;12.40;84.70;;;;;;5053410;23;20037;-75
2021/05/05 11:16:32;;;;;;;7.80;0.98;;;12.70;80.70;;;;;;5056828;28;20036;-75
2021/05/05 11:19:37;;;;;;;11.25;0.60;;;9.50;80.30;;;;;;5062288;28;20033;-75
2021/05/05 11:22:07;;;;;;;7.32;0.35;;;11.90;83.10;;;;;;5042880;28;20505;-74
2021/05/05 11:24:38;;;;;;;13.15;0.38;;;10.60;85.90;;;;;;5056866;28;20032;-76
2021/05/05 11:27:09;;;;;;;8.68;0.20;;;11.00;81.60;;;;;;5038706;28;20482;-76
2021/05/05 11:29:50;;;;;;;13.23;1.08;;;11.90;87.40;;;;;;5056596;28;20034;-75
2021/05/05 11:32:26;;;;;;;12.93;0.55;;;11.90;90.80;;;;;;5059308;28;20378;-75
2021/05/05 11:34:53;;;;;;;8.90;0.63;;;12.10;89.60;;;;;;5057154;28;20041;-75
2021/05/05 11:37:27;;;;;;;10.90;1.40;;;12.00;84.80;;;;;;5038211;28;20025;-75
2021/05/05 11:39:58;;;;;;;8.93;0.40;;;11.70;83.30;;;;;;5056142;28;20028;-76
2021/05/05 11:42:40;;;;;;;10.77;0.77;;;11.30;89.20;;;;;;5032146;28;20474;-78
2021/05/05 11:45:14;;;;;;;12.25;1.05;;;10.80;90.40;;;;;;5036910;28;20025;-74
2021/05/05 11:47:44;;;;;;;11.70;2.60;;;10.70;99.90;;;;;;5125244;22;20036;-74
2021/05/05 11:50:15;;;;;;;6.25;0.05;;;11.00;99.20;;;;;;5079627;28;20081;-74
2021/05/05 11:52:43;;;;;;;13.52;1.17;;;10.80;99.90;;;;;;5078145;28;20020;-76
2021/05/05 11:55:08;;;;;;;8.90;0.30;;;11.20;99.90;;;;;;5077952;28;20020;-74
2021/05/05 11:57:37;;;;;;;5.78;0.30;;;11.00;98.80;;;;;;5095807;28;20043;-74
2021/05/05 12:00:12;;;;;;;5.95;0.85;;;11.00;99.90;;;;;;5095264;28;20099;-74
2021/05/05 12:02:48;;;;;;;6.20;1.00;;;10.80;97.70;;;;;;5074981;28;20477;-74
2021/05/05 12:05:37;;;;;;;6.97;0.38;;;10.80;99.90;;;;;;5092975;28;20016;-74
2021/05/05 12:08:06;;;;;;;8.50;1.23;;;11.10;99.90;;;;;;5112718;23;20105;-76
2021/05/05 12:10:46;;;;;;;13.02;0.73;;;11.70;99.90;;;;;;5096294;28;20062;-76
2021/05/05 12:13:18;;;;;;;5.30;0.30;;;12.20;91.50;;;;;;5095940;28;20019;-74
2021/05/05 12:16:00;;;;;;;7.65;0.10;;;12.40;91.30;;;;;;5095231;28;20054;-74
2021/05/05 12:18:30;;;;;;;18.45;1.75;;;12.50;79.30;;;;;;5082841;28;20077;-75
2021/05/05 12:21:10;;;;;;;7.43;0.88;;;12.30;78.10;;;;;;5077628;28;20031;-76
2021/05/05 12:23:44;;;;;;;8.93;0.68;;;12.50;87.50;;;;;;5077478;28;20556;-75
2021/05/05 12:26:16;;;;;;;9.05;0.20;;;13.00;85.00;;;;;;5088040;22;20044;-77
2021/05/05 12:28:43;;;;;;;14.65;0.75;;;12.90;80.10;;;;;;5057549;28;20070;-76
2021/05/05 12:31:12;;;;;;;8.52;0.55;;;12.90;79.10;;;;;;5075619;28;20094;-75
2021/05/05 12:33:40;;;;;;;7.90;0.08;;;12.90;86.90;;;;;;5075894;28;20021;-77
2021/05/05 12:36:21;;;;;;;9.98;0.28;;;13.30;80.70;;;;;;5075457;28;20047;-75
2021/05/05 12:38:55;;;;;;;7.82;0.30;;;13.70;70.30;;;;;;5075136;28;20028;-76
2021/05/05 12:41:23;;;;;;;8.48;0.47;;;14.10;64.90;;;;;;5056336;28;20095;-76
2021/05/05 12:46:32;;;;;;;3.53;0.03;;;13.70;70.20;;;;;;5057608;28;20056;-75
2021/05/05 12:48:59;;;;;;;5.70;0.95;;;13.30;72.80;;;;;;5049597;28;20029;-75
2021/05/05 12:51:26;;;;;;;2.42;0.10;;;13.10;73.40;;;;;;5095294;28;20024;-75
2021/05/05 12:53:52;;;;;;;8.23;0.10;;;13.00;75.20;;;;;;5095471;28;20534;-76
2021/05/05 12:56:20;;;;;;;3.38;0.22;;;12.70;77.90;;;;;;5070326;28;20029;-75
2021/05/05 12:58:48;;;;;;;8.80;0.53;;;12.40;78.00;;;;;;5056836;28;20489;-77
2021/05/05 13:01:15;;;;;;;6.38;0.13;;;12.40;82.20;;;;;;5080143;28;20025;-75
2021/05/05 13:03:43;;;;;;;8.38;0.03;;;12.70;84.20;;;;;;5073420;28;20013;-75
2021/05/05 13:06:11;;;;;;;5.20;0.25;;;13.10;80.30;;;;;;5075726;28;20077;-76
2021/05/05 13:08:50;;;;;;;8.90;0.38;;;13.10;79.60;;;;;;5073729;28;20035;-75
2021/05/05 13:11:23;;;;;;;6.22;0.00;;;13.20;78.40;;;;;;5076460;28;20122;-75
2021/05/05 13:14:26;;;;;;;2.88;0.40;;;12.90;76.60;;;;;;5073631;28;20036;-77